createdAt,value
2024-02-06T00:01:52.413Z,2.72
2024-02-06T00:04:19.584Z,2.93
2024-02-06T00:06:46.349Z,2.40
2024-02-06T00:09:13.084Z,2.30
2024-02-06T00:11:39.950Z,2.55
2024-02-06T00:14:06.908Z,2.83
2024-02-06T00:16:33.565Z,2.70
2024-02-06T00:19:00.214Z,2.20
2024-02-06T00:21:26.817Z,3.25
2024-02-06T00:23:53.340Z,4.05
2024-02-06T00:26:20.031Z,3.00
2024-02-06T00:28:47.580Z,2.07
2024-02-06T00:31:14.388Z,2.05
2024-02-06T00:33:41.220Z,2.63
2024-02-06T00:36:08.174Z,2.33
2024-02-06T00:38:34.818Z,3.05
2024-02-06T00:41:01.396Z,2.83
2024-02-06T00:43:28.792Z,2.33
2024-02-06T00:45:55.601Z,2.55
2024-02-06T00:48:22.340Z,2.10
2024-02-06T00:50:49.271Z,2.90
2024-02-06T00:53:15.918Z,3.67
2024-02-06T00:55:42.658Z,2.05
2024-02-06T00:58:10.102Z,2.05
2024-02-06T01:00:37.674Z,2.72
2024-02-06T01:03:04.449Z,2.88
2024-02-06T01:05:31.032Z,1.80
2024-02-06T01:07:59.374Z,1.98
2024-02-06T01:10:26.236Z,2.53
2024-02-06T01:12:52.953Z,2.55
2024-02-06T01:15:19.645Z,1.95
2024-02-06T01:17:46.337Z,2.60
2024-02-06T01:20:13.173Z,3.30
2024-02-06T01:22:40.061Z,2.85
2024-02-06T01:25:06.905Z,2.33
2024-02-06T01:27:33.480Z,2.55
2024-02-06T01:30:02.618Z,3.17
2024-02-06T01:32:29.283Z,2.60
2024-02-06T01:34:56.280Z,2.50
2024-02-06T01:37:22.904Z,2.80
2024-02-06T01:39:49.528Z,3.13
2024-02-06T01:42:16.175Z,3.23
2024-02-06T01:44:42.783Z,3.22
2024-02-06T01:47:09.951Z,2.72
2024-02-06T01:49:37.782Z,2.55
2024-02-06T01:52:05.855Z,2.55
2024-02-06T01:54:32.435Z,2.60
2024-02-06T01:56:59.279Z,2.33
2024-02-06T01:59:26.464Z,2.38
2024-02-06T02:01:53.953Z,2.80
2024-02-06T02:04:20.936Z,2.78
2024-02-06T02:06:48.281Z,2.10
2024-02-06T02:09:15.047Z,2.65
2024-02-06T02:11:41.639Z,3.70
2024-02-06T02:14:08.559Z,3.00
2024-02-06T02:16:35.308Z,2.90
2024-02-06T02:19:02.056Z,3.47
2024-02-06T02:21:30.754Z,3.97
2024-02-06T02:23:57.548Z,2.80
2024-02-06T02:26:24.850Z,2.97
2024-02-06T02:28:52.958Z,2.85
2024-02-06T02:31:21.608Z,3.20
2024-02-06T02:33:48.660Z,2.65
2024-02-06T02:36:15.974Z,2.60
2024-02-06T02:38:43.442Z,3.00
2024-02-06T02:41:10.038Z,2.90
2024-02-06T02:43:36.797Z,3.23
2024-02-06T02:46:03.992Z,2.65
2024-02-06T02:48:30.876Z,2.88
2024-02-06T02:50:57.546Z,2.50
2024-02-06T02:53:24.121Z,2.25
2024-02-06T02:55:50.803Z,3.13
2024-02-06T02:58:17.765Z,3.28
2024-02-06T03:00:44.500Z,3.00
2024-02-06T03:03:11.244Z,3.08
2024-02-06T03:05:39.088Z,3.35
2024-02-06T03:08:06.247Z,2.57
2024-02-06T03:10:33.061Z,2.88
2024-02-06T03:12:59.671Z,3.03
2024-02-06T03:15:27.025Z,2.88
2024-02-06T03:17:55.646Z,2.67
2024-02-06T03:20:22.625Z,2.40
2024-02-06T03:22:49.971Z,2.42
2024-02-06T03:25:17.073Z,2.72
2024-02-06T03:27:44.722Z,2.13
2024-02-06T03:30:12.087Z,3.15
2024-02-06T03:32:39.647Z,3.13
2024-02-06T03:35:08.418Z,4.15
2024-02-06T03:37:35.670Z,2.38
2024-02-06T03:40:02.463Z,3.05
2024-02-06T03:42:29.129Z,3.05
2024-02-06T03:44:55.741Z,3.77
2024-02-06T03:47:22.702Z,3.63
2024-02-06T03:49:49.500Z,3.47
2024-02-06T03:52:16.248Z,3.72
2024-02-06T03:54:42.874Z,3.42
2024-02-06T03:57:09.498Z,3.43
2024-02-06T03:59:36.588Z,3.75
2024-02-06T04:02:04.553Z,3.10
2024-02-06T04:04:31.630Z,3.33
2024-02-06T04:06:58.452Z,4.78
2024-02-06T04:09:25.158Z,2.70
2024-02-06T04:11:51.815Z,3.13
2024-02-06T04:14:18.508Z,3.65
2024-02-06T04:16:45.721Z,2.83
2024-02-06T04:19:12.832Z,3.47
2024-02-06T04:21:39.678Z,2.97
2024-02-06T04:24:09.612Z,4.82
2024-02-06T04:26:36.816Z,3.28
2024-02-06T04:29:03.390Z,2.75
2024-02-06T04:31:29.978Z,2.45
2024-02-06T04:33:56.747Z,3.70
2024-02-06T04:36:24.147Z,3.33
2024-02-06T04:38:51.195Z,3.40
2024-02-06T04:41:17.810Z,2.30
2024-02-06T04:43:44.972Z,3.15
2024-02-06T04:46:11.738Z,3.07
2024-02-06T04:48:38.506Z,2.75
2024-02-06T04:51:05.205Z,3.85
2024-02-06T04:53:32.875Z,3.72
2024-02-06T04:56:00.977Z,3.42
2024-02-06T04:58:27.797Z,3.20
2024-02-06T05:00:54.589Z,3.90
2024-02-06T05:03:21.296Z,3.38
2024-02-06T05:05:47.910Z,3.33
2024-02-06T05:08:14.637Z,2.85
2024-02-06T05:10:41.868Z,3.93
2024-02-06T05:13:08.941Z,3.88
2024-02-06T05:15:35.533Z,3.38
2024-02-06T05:18:02.318Z,4.10
2024-02-06T05:20:29.554Z,2.92
2024-02-06T05:22:56.153Z,3.63
2024-02-06T05:25:24.760Z,3.50
2024-02-06T05:27:51.881Z,2.70
2024-02-06T05:30:19.572Z,2.70
2024-02-06T05:32:46.298Z,3.33
2024-02-06T05:35:13.287Z,2.93
2024-02-06T05:37:40.243Z,3.53
2024-02-06T05:40:08.597Z,2.65
2024-02-06T05:42:35.283Z,3.40
2024-02-06T05:45:01.857Z,3.80
2024-02-06T05:47:28.947Z,3.60
2024-02-06T05:49:55.914Z,4.15
2024-02-06T05:52:22.863Z,4.20
2024-02-06T05:54:49.694Z,3.00
2024-02-06T05:57:16.359Z,3.53
2024-02-06T05:59:42.941Z,4.63
2024-02-06T06:02:09.791Z,2.97
2024-02-06T06:04:36.761Z,2.58
2024-02-06T06:07:03.659Z,2.92
2024-02-06T06:09:30.641Z,3.40
2024-02-06T06:11:57.365Z,3.10
2024-02-06T06:14:23.992Z,3.33
2024-02-06T06:16:50.547Z,3.00
2024-02-06T06:19:17.204Z,3.10
2024-02-06T06:21:44.244Z,3.10
2024-02-06T06:24:11.146Z,2.60
2024-02-06T06:26:38.707Z,3.15
2024-02-06T06:29:05.584Z,2.35
2024-02-06T06:31:32.256Z,2.63
2024-02-06T06:33:59.073Z,3.67
2024-02-06T06:36:25.804Z,2.87
2024-02-06T06:38:53.004Z,3.22
2024-02-06T06:41:19.601Z,2.90
2024-02-06T06:43:46.397Z,2.90
2024-02-06T06:46:13.174Z,2.65
2024-02-06T06:48:39.907Z,2.90
2024-02-06T06:51:06.984Z,2.85
2024-02-06T06:53:33.580Z,3.05
2024-02-06T06:56:00.237Z,3.00
2024-02-06T06:58:26.965Z,2.60
2024-02-06T07:00:54.428Z,2.80
2024-02-06T07:03:21.329Z,3.00
2024-02-06T07:05:52.487Z,2.88
2024-02-06T07:08:19.241Z,3.03
2024-02-06T07:10:45.924Z,3.30
2024-02-06T07:13:12.889Z,2.80
2024-02-06T07:15:39.560Z,2.42
2024-02-06T07:18:06.473Z,3.40
2024-02-06T07:20:33.212Z,2.25
2024-02-06T07:22:59.825Z,2.70
2024-02-06T07:25:26.545Z,2.83
2024-02-06T07:27:53.201Z,3.22
2024-02-06T07:30:27.707Z,2.38
2024-02-06T07:33:00.889Z,2.90
2024-02-06T07:35:27.550Z,3.00
2024-02-06T07:37:54.474Z,3.47
2024-02-06T07:40:20.995Z,2.90
2024-02-06T07:42:50.837Z,2.63
2024-02-06T07:45:17.606Z,2.60
2024-02-06T07:47:45.102Z,2.53
2024-02-06T07:50:12.028Z,2.17
2024-02-06T07:52:38.817Z,2.55
2024-02-06T07:55:06.104Z,3.40
2024-02-06T07:57:32.785Z,3.95
2024-02-06T07:59:59.336Z,3.45
2024-02-06T08:02:26.353Z,2.90
2024-02-06T08:04:54.588Z,2.50
2024-02-06T08:07:22.068Z,2.80
2024-02-06T08:09:49.051Z,2.95
2024-02-06T08:12:15.693Z,2.58
2024-02-06T08:14:43.221Z,5.20
2024-02-06T08:17:09.840Z,2.50
2024-02-06T08:19:36.523Z,3.30
2024-02-06T08:22:03.285Z,2.60
2024-02-06T08:24:29.875Z,2.55
2024-02-06T08:26:56.892Z,2.63
2024-02-06T08:29:23.651Z,2.97
2024-02-06T08:31:50.876Z,3.40
2024-02-06T08:34:17.880Z,3.38
2024-02-06T08:36:44.680Z,3.75
2024-02-06T08:39:11.320Z,2.30
2024-02-06T08:41:38.039Z,3.55
2024-02-06T08:44:04.921Z,3.42
2024-02-06T08:46:31.571Z,3.00
2024-02-06T08:48:58.562Z,2.28
2024-02-06T08:51:25.315Z,3.10
2024-02-06T08:53:51.936Z,3.20
2024-02-06T08:56:18.567Z,2.15
2024-02-06T08:58:46.762Z,3.00
2024-02-06T09:01:13.886Z,2.65
2024-02-06T09:03:40.682Z,2.93
2024-02-06T09:06:07.791Z,3.40
2024-02-06T09:08:34.546Z,3.22
2024-02-06T09:11:01.264Z,3.20
2024-02-06T09:13:27.931Z,5.32
2024-02-06T09:15:54.549Z,2.73
2024-02-06T09:18:21.640Z,3.00
2024-02-06T09:20:48.829Z,4.30
2024-02-06T09:23:15.405Z,2.95
2024-02-06T09:25:44.855Z,3.05
2024-02-06T09:28:11.642Z,4.47
2024-02-06T09:30:40.871Z,4.60
2024-02-06T09:33:08.229Z,3.42
2024-02-06T09:35:34.950Z,4.50
2024-02-06T09:38:01.744Z,3.88
2024-02-06T09:40:28.428Z,3.27
2024-02-06T09:42:55.792Z,3.30
2024-02-06T09:45:22.506Z,3.33
2024-02-06T09:47:49.223Z,3.22
2024-02-06T09:50:15.935Z,4.10
2024-02-06T09:52:45.903Z,3.30
2024-02-06T09:55:16.697Z,3.25
2024-02-06T09:57:45.828Z,3.78
2024-02-06T10:00:15.320Z,2.35
2024-02-06T10:02:44.269Z,2.30
2024-02-06T10:05:18.860Z,2.47
2024-02-06T10:07:52.293Z,2.58
2024-02-06T10:10:20.521Z,2.35
2024-02-06T10:12:47.248Z,1.77
2024-02-06T10:15:28.407Z,2.20
2024-02-06T10:17:57.237Z,2.67
2024-02-06T10:20:23.983Z,2.20
2024-02-06T10:22:51.675Z,2.00
2024-02-06T10:25:19.089Z,2.58
2024-02-06T10:27:46.178Z,1.73
2024-02-06T10:30:13.081Z,2.00
2024-02-06T10:32:40.459Z,2.30
2024-02-06T10:35:09.164Z,2.38
2024-02-06T10:37:38.612Z,2.55
2024-02-06T10:40:10.653Z,3.28
2024-02-06T10:43:09.616Z,2.57
2024-02-06T10:45:24.894Z,2.60
2024-02-06T10:47:59.365Z,2.20
2024-02-06T10:50:29.928Z,2.67
2024-02-06T10:52:57.238Z,2.47
2024-02-06T10:55:24.430Z,2.87
2024-02-06T10:58:06.022Z,3.40
2024-02-06T11:00:38.151Z,3.78
2024-02-06T11:03:10.303Z,2.50
2024-02-06T11:05:50.205Z,3.15
2024-02-06T11:08:21.158Z,3.07
2024-02-06T11:10:53.004Z,2.78
2024-02-06T11:13:23.307Z,3.20
2024-02-06T11:15:52.991Z,2.58
2024-02-06T11:18:21.028Z,2.97
2024-02-06T11:20:52.082Z,4.00
2024-02-06T11:23:22.020Z,2.85
2024-02-06T11:25:50.251Z,2.35
2024-02-06T11:28:18.360Z,2.20
2024-02-06T11:30:46.245Z,3.60
2024-02-06T11:33:15.889Z,3.00
2024-02-06T11:35:42.713Z,2.75
2024-02-06T11:38:09.964Z,2.45
2024-02-06T11:40:36.830Z,2.22
2024-02-06T11:43:10.487Z,3.03
2024-02-06T11:45:38.915Z,2.60
2024-02-06T11:48:08.270Z,1.98
2024-02-06T11:50:42.678Z,3.38
2024-02-06T11:53:14.690Z,2.40
2024-02-06T11:55:42.901Z,2.85
2024-02-06T11:58:10.385Z,3.33
2024-02-06T12:00:37.786Z,2.58
2024-02-06T12:03:06.182Z,2.50
2024-02-06T12:05:42.188Z,2.75
2024-02-06T12:08:11.964Z,3.03
2024-02-06T12:10:40.245Z,2.10
2024-02-06T12:13:10.783Z,1.88
2024-02-06T12:15:39.003Z,2.55
2024-02-06T12:18:16.100Z,3.22
2024-02-06T12:20:43.319Z,2.10
2024-02-06T12:23:10.927Z,1.93
2024-02-06T12:25:43.956Z,2.45
2024-02-06T12:28:16.949Z,2.42
2024-02-06T12:30:46.508Z,2.13
2024-02-06T12:33:13.371Z,2.33
2024-02-06T12:35:40.435Z,2.70
2024-02-06T12:38:09.090Z,2.70
2024-02-06T12:40:40.372Z,2.63
2024-02-06T12:43:09.171Z,2.38
2024-02-06T12:45:36.457Z,2.40
2024-02-06T12:48:04.375Z,2.40
2024-02-06T12:50:31.507Z,2.50
2024-02-06T12:53:01.665Z,2.22
2024-02-06T12:55:30.621Z,2.38
2024-02-06T12:57:58.757Z,2.03
2024-02-06T13:00:25.773Z,1.50
2024-02-06T13:03:02.922Z,1.95
2024-02-06T13:05:32.221Z,1.83
2024-02-06T13:08:09.400Z,1.85
2024-02-06T13:10:36.629Z,3.10
2024-02-06T13:13:05.950Z,1.83
2024-02-06T13:15:33.696Z,2.00
2024-02-06T13:18:01.673Z,1.45
2024-02-06T13:20:32.137Z,1.60
2024-02-06T13:23:12.129Z,1.55
2024-02-06T13:25:39.454Z,1.83
2024-02-06T13:28:06.878Z,1.67
2024-02-06T13:30:36.454Z,1.42
2024-02-06T13:33:04.806Z,1.45
2024-02-06T13:35:31.623Z,2.58
2024-02-06T13:38:01.546Z,1.63
2024-02-06T13:40:28.603Z,1.85
2024-02-06T13:42:55.292Z,1.73
2024-02-06T13:45:21.975Z,2.10
2024-02-06T13:47:48.744Z,1.90
2024-02-06T13:50:15.515Z,3.00
2024-02-06T13:52:42.542Z,1.90
2024-02-06T13:55:11.210Z,3.42
2024-02-06T13:57:38.512Z,3.10
2024-02-06T14:00:06.744Z,2.63
2024-02-06T14:02:33.538Z,2.33
2024-02-06T14:05:00.357Z,2.25
2024-02-06T14:07:27.475Z,2.55
2024-02-06T14:09:54.103Z,2.40
2024-02-06T14:12:26.120Z,2.40
2024-02-06T14:14:53.578Z,3.50
2024-02-06T14:17:22.343Z,3.45
2024-02-06T14:19:50.194Z,3.38
2024-02-06T14:22:18.958Z,2.60
2024-02-06T14:24:45.785Z,3.10
2024-02-06T14:27:12.389Z,3.13
2024-02-06T14:29:39.047Z,2.65
2024-02-06T14:32:06.035Z,3.28
2024-02-06T14:34:32.803Z,4.30
2024-02-06T14:37:02.228Z,3.03
2024-02-06T14:39:29.170Z,4.23
2024-02-06T14:41:55.771Z,3.25
2024-02-06T14:44:29.668Z,3.55
2024-02-06T14:47:03.560Z,3.03
2024-02-06T14:49:30.271Z,4.07
2024-02-06T14:51:57.271Z,2.70
2024-02-06T14:54:25.141Z,4.07
2024-02-06T14:56:51.706Z,3.47
2024-02-06T14:59:18.303Z,2.97
2024-02-06T15:01:44.961Z,3.13
2024-02-06T15:04:11.750Z,4.37
2024-02-06T15:06:40.102Z,3.30
2024-02-06T15:09:07.871Z,3.42
2024-02-06T15:11:35.619Z,4.20
2024-02-06T15:14:02.420Z,3.63
2024-02-06T15:16:29.288Z,4.27
2024-02-06T15:18:55.942Z,3.95
2024-02-06T15:21:22.843Z,3.45
2024-02-06T15:23:49.577Z,3.42
2024-02-06T15:26:35.146Z,4.10
2024-02-06T15:29:02.369Z,4.07
2024-02-06T15:31:30.041Z,4.38
2024-02-06T15:33:56.993Z,3.70
2024-02-06T15:36:25.295Z,4.20
2024-02-06T15:38:55.466Z,3.97
2024-02-06T15:41:23.871Z,3.83
2024-02-06T15:43:50.679Z,4.05
2024-02-06T15:46:17.959Z,4.35
2024-02-06T15:48:46.815Z,3.35
2024-02-06T15:51:13.724Z,3.65
2024-02-06T15:53:40.959Z,2.90
2024-02-06T15:56:07.801Z,3.45
2024-02-06T15:58:34.533Z,2.78
2024-02-06T16:01:01.630Z,3.03
2024-02-06T16:03:28.332Z,4.70
2024-02-06T16:05:54.994Z,2.80
2024-02-06T16:08:21.768Z,2.95
2024-02-06T16:10:48.769Z,3.75
2024-02-06T16:13:18.613Z,4.20
2024-02-06T16:15:46.833Z,3.33
2024-02-06T16:18:13.924Z,3.57
2024-02-06T16:20:40.724Z,3.50
2024-02-06T16:23:10.495Z,3.53
2024-02-06T16:25:37.165Z,3.38
2024-02-06T16:28:04.104Z,3.63
2024-02-06T16:30:30.744Z,4.27
2024-02-06T16:32:57.400Z,4.13
2024-02-06T16:35:24.188Z,3.55
2024-02-06T16:37:51.082Z,3.42
2024-02-06T16:40:19.024Z,3.85
2024-02-06T16:42:46.195Z,3.43
2024-02-06T16:45:13.091Z,4.70
2024-02-06T16:47:40.003Z,3.83
2024-02-06T16:50:07.338Z,3.05
2024-02-06T16:52:34.164Z,4.07
2024-02-06T16:55:01.016Z,3.87
2024-02-06T16:57:27.677Z,3.83
2024-02-06T16:59:54.243Z,4.50
2024-02-06T17:02:21.162Z,5.10
2024-02-06T17:04:47.890Z,4.63
2024-02-06T17:07:14.761Z,3.67
2024-02-06T17:09:41.470Z,4.60
2024-02-06T17:12:08.149Z,4.50
2024-02-06T17:14:35.082Z,4.10
2024-02-06T17:17:01.793Z,5.63
2024-02-06T17:19:28.478Z,4.27
2024-02-06T17:21:55.193Z,3.75
2024-02-06T17:24:21.746Z,5.55
2024-02-06T17:26:48.379Z,3.95
2024-02-06T17:29:15.146Z,4.68
2024-02-06T17:31:41.982Z,4.25
2024-02-06T17:34:08.833Z,4.10
2024-02-06T17:36:39.673Z,4.25
2024-02-06T17:39:06.761Z,3.67
2024-02-06T17:41:33.377Z,4.30
2024-02-06T17:44:00.103Z,4.03
2024-02-06T17:46:26.831Z,4.17
2024-02-06T17:48:53.511Z,3.28
2024-02-06T17:51:20.068Z,3.78
2024-02-06T17:53:46.615Z,3.60
2024-02-06T17:56:13.209Z,4.38
2024-02-06T17:58:42.383Z,3.37
2024-02-06T18:01:10.362Z,3.70
2024-02-06T18:03:37.330Z,4.63
2024-02-06T18:06:04.139Z,4.63
2024-02-06T18:08:31.113Z,3.85
2024-02-06T18:10:57.908Z,4.40
2024-02-06T18:13:24.571Z,3.35
2024-02-06T18:15:51.301Z,3.90
2024-02-06T18:18:18.263Z,4.90
2024-02-06T18:20:44.972Z,4.22
2024-02-06T18:23:11.547Z,4.40
2024-02-06T18:25:38.350Z,3.53
2024-02-06T18:28:06.484Z,3.65
2024-02-06T18:30:35.258Z,3.25
2024-02-06T18:33:02.135Z,4.03
2024-02-06T18:35:28.910Z,4.10
2024-02-06T18:37:57.693Z,3.72
2024-02-06T18:40:24.359Z,4.18
2024-02-06T18:42:51.306Z,3.70
2024-02-06T18:45:18.043Z,3.95
2024-02-06T18:47:45.159Z,4.47
2024-02-06T18:50:11.913Z,3.03
2024-02-06T18:52:39.696Z,3.55
2024-02-06T18:55:12.656Z,4.28
2024-02-06T18:57:42.737Z,3.83
2024-02-06T19:00:10.893Z,5.07
2024-02-06T19:02:38.311Z,3.45
2024-02-06T19:05:05.897Z,3.00
2024-02-06T19:07:33.133Z,3.97
2024-02-06T19:10:00.328Z,3.20
2024-02-06T19:12:27.181Z,3.93
2024-02-06T19:14:53.957Z,4.20
2024-02-06T19:17:20.656Z,3.90
2024-02-06T19:19:48.598Z,3.40
2024-02-06T19:22:15.760Z,3.60
2024-02-06T19:24:42.897Z,5.17
2024-02-06T19:27:09.593Z,3.75
2024-02-06T19:29:36.212Z,3.67
2024-02-06T19:32:06.473Z,3.55
2024-02-06T19:34:34.756Z,3.38
2024-02-06T19:37:01.903Z,3.73
2024-02-06T19:39:28.587Z,3.58
2024-02-06T19:41:57.224Z,3.95
2024-02-06T19:44:23.994Z,3.90
2024-02-06T19:46:51.313Z,3.35
2024-02-06T19:49:18.374Z,4.97
2024-02-06T19:51:45.350Z,4.13
2024-02-06T19:54:12.055Z,3.50
2024-02-06T19:56:39.210Z,4.13
2024-02-06T19:59:05.748Z,3.28
2024-02-06T20:01:32.524Z,3.53
2024-02-06T20:04:01.007Z,4.28
2024-02-06T20:06:27.597Z,3.73
2024-02-06T20:08:55.042Z,4.07
2024-02-06T20:11:21.728Z,3.28
2024-02-06T20:13:48.486Z,3.65
2024-02-06T20:16:15.271Z,3.70
2024-02-06T20:18:41.998Z,3.40
2024-02-06T20:21:08.683Z,4.40
2024-02-06T20:23:39.060Z,3.88
2024-02-06T20:26:07.064Z,3.13
2024-02-06T20:28:34.003Z,4.00
2024-02-06T20:31:02.545Z,3.70
2024-02-06T20:33:29.435Z,2.97
2024-02-06T20:35:56.134Z,3.42
2024-02-06T20:38:22.756Z,3.92
2024-02-06T20:40:49.575Z,4.00
2024-02-06T20:43:16.222Z,3.67
2024-02-06T20:45:42.804Z,3.92
2024-02-06T20:48:10.252Z,3.80
2024-02-06T20:50:37.092Z,3.97
2024-02-06T20:53:04.921Z,3.67
2024-02-06T20:55:31.583Z,3.63
2024-02-06T20:57:58.889Z,3.30
2024-02-06T21:00:25.599Z,3.80
2024-02-06T21:02:52.756Z,4.22
2024-02-06T21:05:19.456Z,3.67
2024-02-06T21:07:47.218Z,4.47
2024-02-06T21:10:13.966Z,3.90
2024-02-06T21:12:40.981Z,4.25
2024-02-06T21:15:08.066Z,4.03
2024-02-06T21:17:35.478Z,3.30
2024-02-06T21:20:02.465Z,4.38
2024-02-06T21:22:29.250Z,4.47
2024-02-06T21:24:56.073Z,3.65
2024-02-06T21:27:22.674Z,4.60
2024-02-06T21:29:49.225Z,3.65
2024-02-06T21:32:15.817Z,4.40
2024-02-06T21:34:42.658Z,3.80
2024-02-06T21:37:09.795Z,3.30
2024-02-06T21:39:36.583Z,3.47
2024-02-06T21:42:04.365Z,1.98
2024-02-06T21:44:31.221Z,0.55
2024-02-06T21:46:58.260Z,0.70
2024-02-06T21:49:25.546Z,1.02
2024-02-06T21:51:52.365Z,0.80
2024-02-06T21:54:19.480Z,0.60
2024-02-06T21:56:46.928Z,1.10
2024-02-06T21:59:14.058Z,0.80
2024-02-06T22:01:44.745Z,1.05
2024-02-06T22:04:11.990Z,0.70
2024-02-06T22:06:38.896Z,1.52
2024-02-06T22:09:08.484Z,0.50
2024-02-06T22:11:35.829Z,0.73
2024-02-06T22:14:02.438Z,0.47
2024-02-06T22:16:29.360Z,0.50
2024-02-06T22:18:56.039Z,1.00
2024-02-06T22:21:22.778Z,0.77
2024-02-06T22:23:49.417Z,1.80
2024-02-06T22:26:16.081Z,2.33
2024-02-06T22:28:42.731Z,0.50
2024-02-06T22:31:09.711Z,0.70
2024-02-06T22:33:37.031Z,0.98
2024-02-06T22:36:03.942Z,0.60
2024-02-06T22:38:31.679Z,1.55
2024-02-06T22:40:59.188Z,0.85
2024-02-06T22:43:26.606Z,0.40
2024-02-06T22:45:53.231Z,0.73
2024-02-06T22:48:19.864Z,0.80
2024-02-06T22:50:46.491Z,0.80
2024-02-06T22:53:13.206Z,1.15
2024-02-06T22:55:39.767Z,0.40
2024-02-06T22:58:06.636Z,1.25
2024-02-06T23:00:33.738Z,0.80
2024-02-06T23:03:01.778Z,0.40
2024-02-06T23:05:28.429Z,0.90
2024-02-06T23:07:56.869Z,0.98
2024-02-06T23:10:23.656Z,0.60
2024-02-06T23:12:50.994Z,2.20
2024-02-06T23:15:23.591Z,0.70
2024-02-06T23:17:50.451Z,0.80
2024-02-06T23:20:17.498Z,1.90
2024-02-06T23:22:44.681Z,0.70
2024-02-06T23:25:11.719Z,0.70
2024-02-06T23:27:38.638Z,1.15
2024-02-06T23:30:07.480Z,0.50
2024-02-06T23:32:34.382Z,1.05
2024-02-06T23:35:01.200Z,0.45
2024-02-06T23:37:28.260Z,0.67
2024-02-06T23:39:54.899Z,0.60
2024-02-06T23:42:21.656Z,0.40
2024-02-06T23:44:48.310Z,0.77
2024-02-06T23:47:14.915Z,0.93
2024-02-06T23:49:41.690Z,0.70
2024-02-06T23:52:08.513Z,0.88
2024-02-06T23:54:36.896Z,0.60
2024-02-06T23:57:03.544Z,0.80
2024-02-06T23:59:30.323Z,0.57
